NKS5DC KJFK-KMIA
Flight info
| Callsign | NKS5DC |
|---|---|
| Flight time | N/A |
| Altitude | 34000 |
| Route | WAVEY EMJAY Q167 KALDA Q101 SKARP Y313 IDOLS/N0461F360 Y313 HOAGG BNFSH3 |
| Aircraft | A320/M-SDE3FGHIRWY/LB1 |
Departure
| Time | N/A |
|---|---|
| Airport | John F. Kennedy International Airport (KJFK) |
Arrival
| Time | 2026-05-03 20:23 |
|---|---|
| Airport | Miami International Airport (KMIA) |
| Time | Latitude | Longitude | Altitude | Speed | Heading |
|---|---|---|---|---|---|
| 2026-05-03 20:15 | 25.71231 | -80.28252 | 7413 ft | 277 kts | 265° |
| 2026-05-03 20:15 | 25.71124 | -80.30340 | 6994 ft | 267 kts | 266° |
| 2026-05-03 20:15 | 25.71024 | -80.32377 | 6507 ft | 262 kts | 266° |
| 2026-05-03 20:15 | 25.70933 | -80.34326 | 6337 ft | 244 kts | 266° |
| 2026-05-03 20:16 | 25.70864 | -80.36108 | 6207 ft | 225 kts | 266° |
| 2026-05-03 20:16 | 25.70805 | -80.37795 | 5926 ft | 215 kts | 266° |
| 2026-05-03 20:16 | 25.70728 | -80.39443 | 5509 ft | 214 kts | 265° |
| 2026-05-03 20:16 | 25.70633 | -80.41090 | 5212 ft | 214 kts | 265° |
| 2026-05-03 20:17 | 25.70524 | -80.42730 | 4905 ft | 213 kts | 265° |
| 2026-05-03 20:17 | 25.70408 | -80.44362 | 4581 ft | 212 kts | 265° |
| 2026-05-03 20:17 | 25.70285 | -80.45998 | 4281 ft | 212 kts | 264° |
| 2026-05-03 20:17 | 25.70156 | -80.47631 | 3958 ft | 213 kts | 265° |
| 2026-05-03 20:18 | 25.70025 | -80.49267 | 3640 ft | 214 kts | 264° |
| 2026-05-03 20:18 | 25.69892 | -80.50909 | 3335 ft | 214 kts | 264° |
| 2026-05-03 20:18 | 25.69999 | -80.52516 | 3028 ft | 214 kts | 291° |
| 2026-05-03 20:18 | 25.70926 | -80.53790 | 2986 ft | 219 kts | 326° |
| 2026-05-03 20:19 | 25.72375 | -80.54326 | 2996 ft | 225 kts | 347° |
| 2026-05-03 20:19 | 25.73938 | -80.54449 | 2981 ft | 227 kts | 6° |
| 2026-05-03 20:19 | 25.75381 | -80.53774 | 2981 ft | 229 kts | 40° |
| 2026-05-03 20:19 | 25.76452 | -80.52460 | 2984 ft | 232 kts | 51° |
| 2026-05-03 20:20 | 25.77393 | -80.51002 | 2986 ft | 234 kts | 61° |
| 2026-05-03 20:20 | 25.77856 | -80.49287 | 2975 ft | 232 kts | 86° |
| 2026-05-03 20:20 | 25.77937 | -80.47488 | 2810 ft | 233 kts | 88° |
| 2026-05-03 20:20 | 25.78009 | -80.45683 | 2540 ft | 234 kts | 88° |
| 2026-05-03 20:21 | 25.78083 | -80.43908 | 2245 ft | 233 kts | 87° |
| 2026-05-03 20:21 | 25.78159 | -80.42122 | 1945 ft | 231 kts | 86° |
| 2026-05-03 20:21 | 25.78235 | -80.40342 | 1638 ft | 230 kts | 87° |
| 2026-05-03 20:21 | 25.78310 | -80.38576 | 1340 ft | 228 kts | 87° |
| 2026-05-03 20:22 | 25.78384 | -80.36827 | 1047 ft | 226 kts | 87° |
| 2026-05-03 20:22 | 25.78456 | -80.35113 | 744 ft | 215 kts | 86° |
| 2026-05-03 20:22 | 25.78522 | -80.33532 | 504 ft | 194 kts | 86° |
| 2026-05-03 20:22 | 25.78580 | -80.32133 | 293 ft | 167 kts | 86° |
| 2026-05-03 20:23 | 25.78632 | -80.30914 | 29 ft | 152 kts | 85° |
| 2026-05-03 20:23 | 25.78703 | -80.29906 | 14 ft | 97 kts | 88° |
| 2026-05-03 20:23 | 25.78707 | -80.29424 | 14 ft | 48 kts | 88° |
| 2026-05-03 20:23 | 25.78778 | -80.29182 | 15 ft | 20 kts | 40° |
| 2026-05-03 20:24 | 25.78808 | -80.29139 | 15 ft | 1 kts | 61° |
| 2026-05-03 20:24 | 25.78812 | -80.29129 | 16 ft | 0 kts | 64° |
| 2026-05-03 20:24 | 25.78815 | -80.29121 | 17 ft | 4 kts | 66° |
| 2026-05-03 20:25 | 25.78820 | -80.29078 | 15 ft | 7 kts | 85° |
| 2026-05-03 20:25 | 25.78826 | -80.29017 | 15 ft | 9 kts | 78° |
| 2026-05-03 20:25 | 25.78845 | -80.28939 | 15 ft | 12 kts | 74° |
| 2026-05-03 20:25 | 25.78862 | -80.28866 | 15 ft | 9 kts | 79° |
| 2026-05-03 20:26 | 25.78867 | -80.28782 | 14 ft | 12 kts | 87° |
| 2026-05-03 20:26 | 25.78871 | -80.28687 | 14 ft | 13 kts | 88° |
| 2026-05-03 20:26 | 25.78875 | -80.28584 | 15 ft | 13 kts | 87° |
| 2026-05-03 20:26 | 25.78880 | -80.28481 | 15 ft | 13 kts | 87° |
| 2026-05-03 20:27 | 25.78884 | -80.28377 | 17 ft | 12 kts | 88° |
| 2026-05-03 20:27 | 25.78889 | -80.28270 | 15 ft | 15 kts | 87° |
| 2026-05-03 20:27 | 25.78895 | -80.28164 | 16 ft | 11 kts | 84° |
| 2026-05-03 20:27 | 25.78903 | -80.28088 | 17 ft | 8 kts | 83° |
| 2026-05-03 20:28 | 25.78914 | -80.28025 | 19 ft | 9 kts | 64° |
| 2026-05-03 20:28 | 25.78940 | -80.27958 | 16 ft | 6 kts | 86° |
| 2026-05-03 20:28 | 25.78939 | -80.27926 | 16 ft | 5 kts | 92° |
| 2026-05-03 20:28 | 25.78963 | -80.27891 | 15 ft | 7 kts | 15° |
| 2026-05-03 20:29 | 25.79014 | -80.27893 | 15 ft | 0 kts | 354° |
| 2026-05-03 20:29 | 25.79019 | -80.27893 | 15 ft | 2 kts | 354° |
| 2026-05-03 20:29 | 25.79028 | -80.27894 | 18 ft | 1 kts | 354° |
| 2026-05-03 20:29 | 25.79030 | -80.27895 | 18 ft | 0 kts | 354° |